sensor_id;sensor_type;location;lat;lon;timestamp;P1;durP1;ratioP1;P2;durP2;ratioP2
11211;SDS011;5663;50.864;12.096;2023-08-06T00:00:29;5.00;;;4.50;;
11211;SDS011;5663;50.864;12.096;2023-08-06T00:03:14;5.30;;;4.33;;
11211;SDS011;5663;50.864;12.096;2023-08-06T00:05:59;7.00;;;4.50;;
11211;SDS011;5663;50.864;12.096;2023-08-06T00:08:33;8.17;;;5.30;;
11211;SDS011;5663;50.864;12.096;2023-08-06T00:11:06;7.87;;;4.90;;
11211;SDS011;5663;50.864;12.096;2023-08-06T00:13:40;6.23;;;5.60;;
11211;SDS011;5663;50.864;12.096;2023-08-06T00:16:37;9.03;;;5.17;;
11211;SDS011;5663;50.864;12.096;2023-08-06T00:19:32;9.00;;;5.20;;
11211;SDS011;5663;50.864;12.096;2023-08-06T00:22:13;9.13;;;4.50;;
11211;SDS011;5663;50.864;12.096;2023-08-06T00:25:11;5.83;;;5.23;;
11211;SDS011;5663;50.864;12.096;2023-08-06T00:28:05;8.37;;;4.23;;
11211;SDS011;5663;50.864;12.096;2023-08-06T00:30:42;4.40;;;3.90;;
11211;SDS011;5663;50.864;12.096;2023-08-06T00:33:25;3.63;;;3.23;;
11211;SDS011;5663;50.864;12.096;2023-08-06T00:36:04;2.60;;;2.40;;
11211;SDS011;5663;50.864;12.096;2023-08-06T00:38:40;2.57;;;2.37;;
11211;SDS011;5663;50.864;12.096;2023-08-06T00:41:25;4.00;;;2.40;;
11211;SDS011;5663;50.864;12.096;2023-08-06T00:44:11;4.20;;;2.60;;
11211;SDS011;5663;50.864;12.096;2023-08-06T00:46:42;3.17;;;2.20;;
11211;SDS011;5663;50.864;12.096;2023-08-06T00:49:17;2.40;;;2.20;;
11211;SDS011;5663;50.864;12.096;2023-08-06T00:52:19;1.80;;;1.70;;
11211;SDS011;5663;50.864;12.096;2023-08-06T01:01:04;2.30;;;2.10;;
11211;SDS011;5663;50.864;12.096;2023-08-06T01:03:36;3.07;;;1.87;;
11211;SDS011;5663;50.864;12.096;2023-08-06T01:06:08;2.20;;;1.80;;
11211;SDS011;5663;50.864;12.096;2023-08-06T01:09:00;1.83;;;1.73;;
11211;SDS011;5663;50.864;12.096;2023-08-06T01:11:37;1.57;;;1.47;;
11211;SDS011;5663;50.864;12.096;2023-08-06T01:14:12;1.80;;;1.70;;
11211;SDS011;5663;50.864;12.096;2023-08-06T01:16:46;1.80;;;1.70;;
11211;SDS011;5663;50.864;12.096;2023-08-06T01:19:16;3.07;;;1.83;;
11211;SDS011;5663;50.864;12.096;2023-08-06T01:21:48;1.73;;;1.63;;
11211;SDS011;5663;50.864;12.096;2023-08-06T01:24:22;1.97;;;1.83;;
11211;SDS011;5663;50.864;12.096;2023-08-06T01:26:58;2.00;;;1.80;;
11211;SDS011;5663;50.864;12.096;2023-08-06T01:29:35;2.00;;;1.90;;
11211;SDS011;5663;50.864;12.096;2023-08-06T01:32:12;2.20;;;2.00;;
11211;SDS011;5663;50.864;12.096;2023-08-06T01:34:49;2.47;;;1.73;;
11211;SDS011;5663;50.864;12.096;2023-08-06T01:37:23;2.13;;;1.93;;
11211;SDS011;5663;50.864;12.096;2023-08-06T01:39:59;2.00;;;1.80;;
11211;SDS011;5663;50.864;12.096;2023-08-06T01:42:31;2.03;;;1.83;;
11211;SDS011;5663;50.864;12.096;2023-08-06T01:45:06;2.40;;;1.80;;
11211;SDS011;5663;50.864;12.096;2023-08-06T01:47:39;1.93;;;1.83;;
11211;SDS011;5663;50.864;12.096;2023-08-06T01:50:10;1.80;;;1.70;;
11211;SDS011;5663;50.864;12.096;2023-08-06T01:52:40;3.93;;;1.70;;
11211;SDS011;5663;50.864;12.096;2023-08-06T01:55:29;3.13;;;1.80;;
11211;SDS011;5663;50.864;12.096;2023-08-06T01:58:04;1.57;;;1.47;;
11211;SDS011;5663;50.864;12.096;2023-08-06T02:00:36;1.70;;;1.60;;
11211;SDS011;5663;50.864;12.096;2023-08-06T02:03:07;3.10;;;1.80;;
11211;SDS011;5663;50.864;12.096;2023-08-06T02:05:41;2.20;;;1.73;;
11211;SDS011;5663;50.864;12.096;2023-08-06T02:08:28;1.57;;;1.40;;
11211;SDS011;5663;50.864;12.096;2023-08-06T02:11:01;5.90;;;1.90;;
11211;SDS011;5663;50.864;12.096;2023-08-06T02:13:32;2.37;;;1.60;;
11211;SDS011;5663;50.864;12.096;2023-08-06T02:16:19;4.27;;;1.90;;
11211;SDS011;5663;50.864;12.096;2023-08-06T02:18:52;1.57;;;1.47;;
11211;SDS011;5663;50.864;12.096;2023-08-06T02:21:23;2.00;;;1.80;;
11211;SDS011;5663;50.864;12.096;2023-08-06T02:23:54;2.03;;;1.90;;
11211;SDS011;5663;50.864;12.096;2023-08-06T02:26:29;1.90;;;1.80;;
11211;SDS011;5663;50.864;12.096;2023-08-06T02:29:15;1.67;;;1.57;;
11211;SDS011;5663;50.864;12.096;2023-08-06T02:32:03;2.27;;;1.77;;
11211;SDS011;5663;50.864;12.096;2023-08-06T02:34:34;2.90;;;1.80;;
11211;SDS011;5663;50.864;12.096;2023-08-06T02:37:24;2.30;;;1.70;;
11211;SDS011;5663;50.864;12.096;2023-08-06T02:39:55;3.17;;;1.80;;
11211;SDS011;5663;50.864;12.096;2023-08-06T02:42:25;3.20;;;1.73;;
11211;SDS011;5663;50.864;12.096;2023-08-06T02:44:56;2.47;;;1.90;;
11211;SDS011;5663;50.864;12.096;2023-08-06T02:47:30;2.53;;;2.00;;
11211;SDS011;5663;50.864;12.096;2023-08-06T02:50:04;2.03;;;1.90;;
11211;SDS011;5663;50.864;12.096;2023-08-06T02:52:52;5.37;;;2.10;;
11211;SDS011;5663;50.864;12.096;2023-08-06T02:55:29;2.07;;;1.87;;
11211;SDS011;5663;50.864;12.096;2023-08-06T02:58:04;2.90;;;2.00;;
11211;SDS011;5663;50.864;12.096;2023-08-06T03:00:40;3.67;;;1.90;;
11211;SDS011;5663;50.864;12.096;2023-08-06T03:10:07;1.90;;;1.50;;
11211;SDS011;5663;50.864;12.096;2023-08-06T03:12:48;1.90;;;1.80;;
11211;SDS011;5663;50.864;12.096;2023-08-06T03:15:32;2.00;;;1.80;;
11211;SDS011;5663;50.864;12.096;2023-08-06T03:18:03;2.23;;;1.80;;
11211;SDS011;5663;50.864;12.096;2023-08-06T03:20:39;2.17;;;1.87;;
11211;SDS011;5663;50.864;12.096;2023-08-06T03:23:12;2.10;;;1.90;;
11211;SDS011;5663;50.864;12.096;2023-08-06T03:25:46;1.90;;;1.70;;
11211;SDS011;5663;50.864;12.096;2023-08-06T03:28:21;2.20;;;1.90;;
11211;SDS011;5663;50.864;12.096;2023-08-06T03:30:59;3.30;;;2.10;;
11211;SDS011;5663;50.864;12.096;2023-08-06T03:33:32;2.90;;;1.83;;
11211;SDS011;5663;50.864;12.096;2023-08-06T03:36:19;2.33;;;2.13;;
11211;SDS011;5663;50.864;12.096;2023-08-06T03:38:54;1.60;;;1.50;;
11211;SDS011;5663;50.864;12.096;2023-08-06T03:41:30;3.70;;;2.20;;
11211;SDS011;5663;50.864;12.096;2023-08-06T03:44:12;2.20;;;2.00;;
11211;SDS011;5663;50.864;12.096;2023-08-06T03:46:41;3.80;;;1.87;;
11211;SDS011;5663;50.864;12.096;2023-08-06T03:49:15;2.30;;;2.00;;
11211;SDS011;5663;50.864;12.096;2023-08-06T03:51:51;2.17;;;1.80;;
11211;SDS011;5663;50.864;12.096;2023-08-06T03:54:29;2.30;;;1.70;;
11211;SDS011;5663;50.864;12.096;2023-08-06T03:57:11;4.13;;;1.90;;
11211;SDS011;5663;50.864;12.096;2023-08-06T03:59:49;2.33;;;1.87;;
11211;SDS011;5663;50.864;12.096;2023-08-06T04:02:23;2.03;;;1.93;;
11211;SDS011;5663;50.864;12.096;2023-08-06T04:05:01;3.10;;;2.00;;
11211;SDS011;5663;50.864;12.096;2023-08-06T04:07:35;2.93;;;1.80;;
11211;SDS011;5663;50.864;12.096;2023-08-06T04:10:07;2.33;;;2.00;;
11211;SDS011;5663;50.864;12.096;2023-08-06T04:12:37;1.90;;;1.80;;
11211;SDS011;5663;50.864;12.096;2023-08-06T04:15:28;3.40;;;1.90;;
11211;SDS011;5663;50.864;12.096;2023-08-06T04:18:14;3.00;;;2.00;;
11211;SDS011;5663;50.864;12.096;2023-08-06T04:20:48;2.10;;;1.67;;
11211;SDS011;5663;50.864;12.096;2023-08-06T04:23:26;2.00;;;1.90;;
11211;SDS011;5663;50.864;12.096;2023-08-06T04:26:17;1.93;;;1.83;;
11211;SDS011;5663;50.864;12.096;2023-08-06T04:28:48;3.27;;;1.93;;
11211;SDS011;5663;50.864;12.096;2023-08-06T04:31:31;2.00;;;1.80;;
11211;SDS011;5663;50.864;12.096;2023-08-06T04:34:13;2.33;;;2.13;;
11211;SDS011;5663;50.864;12.096;2023-08-06T04:36:55;8.03;;;2.30;;
11211;SDS011;5663;50.864;12.096;2023-08-06T04:39:44;2.30;;;2.10;;
11211;SDS011;5663;50.864;12.096;2023-08-06T04:42:21;2.93;;;2.20;;
11211;SDS011;5663;50.864;12.096;2023-08-06T04:45:01;2.20;;;2.00;;
11211;SDS011;5663;50.864;12.096;2023-08-06T04:47:54;2.03;;;1.70;;
11211;SDS011;5663;50.864;12.096;2023-08-06T04:50:34;2.30;;;2.10;;
11211;SDS011;5663;50.864;12.096;2023-08-06T04:53:12;2.30;;;2.10;;
11211;SDS011;5663;50.864;12.096;2023-08-06T04:55:45;2.00;;;1.90;;
11211;SDS011;5663;50.864;12.096;2023-08-06T04:58:23;2.23;;;2.03;;
11211;SDS011;5663;50.864;12.096;2023-08-06T05:00:56;2.40;;;2.20;;
11211;SDS011;5663;50.864;12.096;2023-08-06T05:10:37;3.70;;;2.33;;
11211;SDS011;5663;50.864;12.096;2023-08-06T05:13:26;2.53;;;2.00;;
11211;SDS011;5663;50.864;12.096;2023-08-06T05:16:13;2.93;;;2.50;;
11211;SDS011;5663;50.864;12.096;2023-08-06T05:18:57;2.40;;;2.20;;
11211;SDS011;5663;50.864;12.096;2023-08-06T05:21:34;2.43;;;2.23;;
11211;SDS011;5663;50.864;12.096;2023-08-06T05:24:30;2.30;;;2.10;;
11211;SDS011;5663;50.864;12.096;2023-08-06T05:30:56;2.50;;;2.30;;
11211;SDS011;5663;50.864;12.096;2023-08-06T05:33:32;2.70;;;2.20;;
11211;SDS011;5663;50.864;12.096;2023-08-06T05:36:15;3.60;;;2.20;;
11211;SDS011;5663;50.864;12.096;2023-08-06T05:39:09;2.97;;;2.37;;
11211;SDS011;5663;50.864;12.096;2023-08-06T05:41:43;2.60;;;2.40;;
11211;SDS011;5663;50.864;12.096;2023-08-06T05:44:24;3.63;;;2.40;;
11211;SDS011;5663;50.864;12.096;2023-08-06T05:50:20;2.27;;;2.07;;
11211;SDS011;5663;50.864;12.096;2023-08-06T05:53:02;2.40;;;2.20;;
11211;SDS011;5663;50.864;12.096;2023-08-06T05:55:47;3.20;;;2.40;;
11211;SDS011;5663;50.864;12.096;2023-08-06T05:58:30;2.10;;;1.90;;
11211;SDS011;5663;50.864;12.096;2023-08-06T06:01:08;3.30;;;2.40;;
11211;SDS011;5663;50.864;12.096;2023-08-06T06:10:27;2.87;;;2.30;;
11211;SDS011;5663;50.864;12.096;2023-08-06T06:13:04;2.50;;;2.30;;
11211;SDS011;5663;50.864;12.096;2023-08-06T06:15:53;2.53;;;2.33;;
11211;SDS011;5663;50.864;12.096;2023-08-06T06:18:25;3.50;;;2.37;;
11211;SDS011;5663;50.864;12.096;2023-08-06T06:21:44;7.40;;;2.70;;
11211;SDS011;5663;50.864;12.096;2023-08-06T06:24:24;2.93;;;2.57;;
11211;SDS011;5663;50.864;12.096;2023-08-06T06:27:20;2.87;;;2.40;;
11211;SDS011;5663;50.864;12.096;2023-08-06T06:33:14;4.33;;;2.40;;
11211;SDS011;5663;50.864;12.096;2023-08-06T06:35:50;4.07;;;2.53;;
11211;SDS011;5663;50.864;12.096;2023-08-06T06:38:23;4.47;;;2.60;;
11211;SDS011;5663;50.864;12.096;2023-08-06T06:40:56;2.80;;;2.50;;
11211;SDS011;5663;50.864;12.096;2023-08-06T06:43:33;2.70;;;2.50;;
11211;SDS011;5663;50.864;12.096;2023-08-06T06:46:19;2.67;;;2.27;;
11211;SDS011;5663;50.864;12.096;2023-08-06T06:52:34;3.00;;;2.67;;
11211;SDS011;5663;50.864;12.096;2023-08-06T06:55:30;5.13;;;2.80;;
11211;SDS011;5663;50.864;12.096;2023-08-06T06:58:11;3.37;;;2.60;;
11211;SDS011;5663;50.864;12.096;2023-08-06T07:00:48;3.50;;;2.97;;
11211;SDS011;5663;50.864;12.096;2023-08-06T07:03:40;3.00;;;2.70;;
11211;SDS011;5663;50.864;12.096;2023-08-06T07:06:21;3.20;;;2.90;;
11211;SDS011;5663;50.864;12.096;2023-08-06T07:09:18;2.80;;;2.60;;
11211;SDS011;5663;50.864;12.096;2023-08-06T07:11:58;3.93;;;3.10;;
11211;SDS011;5663;50.864;12.096;2023-08-06T07:14:38;4.23;;;2.90;;
11211;SDS011;5663;50.864;12.096;2023-08-06T07:17:14;2.80;;;2.60;;
11211;SDS011;5663;50.864;12.096;2023-08-06T07:19:49;4.40;;;2.63;;
11211;SDS011;5663;50.864;12.096;2023-08-06T07:22:24;3.00;;;2.70;;
11211;SDS011;5663;50.864;12.096;2023-08-06T07:25:06;3.07;;;2.77;;
11211;SDS011;5663;50.864;12.096;2023-08-06T07:27:52;2.90;;;2.60;;
11211;SDS011;5663;50.864;12.096;2023-08-06T07:30:39;2.60;;;2.40;;
11211;SDS011;5663;50.864;12.096;2023-08-06T07:33:29;3.70;;;2.60;;
11211;SDS011;5663;50.864;12.096;2023-08-06T07:36:10;3.40;;;3.10;;
11211;SDS011;5663;50.864;12.096;2023-08-06T07:38:50;3.10;;;2.43;;
11211;SDS011;5663;50.864;12.096;2023-08-06T07:41:30;3.27;;;2.77;;
11211;SDS011;5663;50.864;12.096;2023-08-06T07:44:00;2.90;;;2.60;;
11211;SDS011;5663;50.864;12.096;2023-08-06T07:46:38;3.10;;;2.80;;
11211;SDS011;5663;50.864;12.096;2023-08-06T07:52:54;2.93;;;2.50;;
11211;SDS011;5663;50.864;12.096;2023-08-06T07:55:35;3.30;;;2.20;;
11211;SDS011;5663;50.864;12.096;2023-08-06T07:58:12;2.53;;;2.33;;
11211;SDS011;5663;50.864;12.096;2023-08-06T08:01:14;2.50;;;2.30;;
11211;SDS011;5663;50.864;12.096;2023-08-06T08:04:22;2.50;;;2.30;;
11211;SDS011;5663;50.864;12.096;2023-08-06T08:07:41;3.10;;;2.40;;
11211;SDS011;5663;50.864;12.096;2023-08-06T08:14:26;2.70;;;2.50;;
11211;SDS011;5663;50.864;12.096;2023-08-06T08:27:44;3.00;;;2.37;;
11211;SDS011;5663;50.864;12.096;2023-08-06T08:30:25;2.30;;;2.10;;
11211;SDS011;5663;50.864;12.096;2023-08-06T08:33:02;2.43;;;2.23;;
11211;SDS011;5663;50.864;12.096;2023-08-06T08:35:51;2.87;;;2.30;;
11211;SDS011;5663;50.864;12.096;2023-08-06T08:38:39;2.30;;;2.10;;
11211;SDS011;5663;50.864;12.096;2023-08-06T08:41:13;2.50;;;2.10;;
11211;SDS011;5663;50.864;12.096;2023-08-06T08:54:21;2.22;;;2.03;;
11211;SDS011;5663;50.864;12.096;2023-08-06T08:57:13;1.97;;;1.87;;
11211;SDS011;5663;50.864;12.096;2023-08-06T08:59:57;3.40;;;2.20;;
11211;SDS011;5663;50.864;12.096;2023-08-06T09:02:45;2.30;;;2.10;;
11211;SDS011;5663;50.864;12.096;2023-08-06T09:05:59;2.53;;;2.10;;
11211;SDS011;5663;50.864;12.096;2023-08-06T09:09:01;2.30;;;2.10;;
11211;SDS011;5663;50.864;12.096;2023-08-06T09:12:20;2.63;;;2.20;;
11211;SDS011;5663;50.864;12.096;2023-08-06T09:15:02;2.70;;;2.10;;
11211;SDS011;5663;50.864;12.096;2023-08-06T09:17:53;4.28;;;2.22;;
11211;SDS011;5663;50.864;12.096;2023-08-06T09:20:52;2.45;;;2.00;;
11211;SDS011;5663;50.864;12.096;2023-08-06T09:30:31;2.90;;;2.47;;
11211;SDS011;5663;50.864;12.096;2023-08-06T09:33:08;2.10;;;1.90;;
11211;SDS011;5663;50.864;12.096;2023-08-06T09:39:26;2.33;;;2.03;;
11211;SDS011;5663;50.864;12.096;2023-08-06T09:42:37;3.17;;;2.60;;
11211;SDS011;5663;50.864;12.096;2023-08-06T09:56:07;3.10;;;2.13;;
11211;SDS011;5663;50.864;12.096;2023-08-06T09:58:45;2.20;;;2.00;;
11211;SDS011;5663;50.864;12.096;2023-08-06T10:01:33;2.65;;;2.35;;
11211;SDS011;5663;50.864;12.096;2023-08-06T10:04:15;2.28;;;1.85;;
11211;SDS011;5663;50.864;12.096;2023-08-06T10:06:47;2.17;;;2.00;;
11211;SDS011;5663;50.864;12.096;2023-08-06T10:33:51;2.88;;;2.08;;
11211;SDS011;5663;50.864;12.096;2023-08-06T10:36:55;2.08;;;1.85;;
11211;SDS011;5663;50.864;12.096;2023-08-06T10:39:59;2.15;;;1.83;;
11211;SDS011;5663;50.864;12.096;2023-08-06T10:42:58;2.78;;;1.88;;
11211;SDS011;5663;50.864;12.096;2023-08-06T13:09:24;2.22;;;1.30;;
11211;SDS011;5663;50.864;12.096;2023-08-06T13:16:13;1.95;;;1.75;;
11211;SDS011;5663;50.864;12.096;2023-08-06T15:39:24;3.47;;;1.20;;
11211;SDS011;5663;50.864;12.096;2023-08-06T15:42:16;3.08;;;1.50;;
11211;SDS011;5663;50.864;12.096;2023-08-06T15:45:06;1.83;;;1.67;;
11211;SDS011;5663;50.864;12.096;2023-08-06T15:47:55;3.10;;;1.45;;
11211;SDS011;5663;50.864;12.096;2023-08-06T15:50:48;3.90;;;2.00;;
11211;SDS011;5663;50.864;12.096;2023-08-06T15:53:38;2.45;;;1.80;;
11211;SDS011;5663;50.864;12.096;2023-08-06T15:56:46;1.50;;;1.40;;
11211;SDS011;5663;50.864;12.096;2023-08-06T16:06:29;2.15;;;1.95;;
11211;SDS011;5663;50.864;12.096;2023-08-06T16:09:16;1.85;;;1.75;;
11211;SDS011;5663;50.864;12.096;2023-08-06T16:11:59;2.08;;;1.67;;
11211;SDS011;5663;50.864;12.096;2023-08-06T16:14:45;3.05;;;1.80;;
11211;SDS011;5663;50.864;12.096;2023-08-06T16:18:16;1.60;;;1.50;;
11211;SDS011;5663;50.864;12.096;2023-08-06T16:20:47;1.70;;;1.60;;
11211;SDS011;5663;50.864;12.096;2023-08-06T16:23:34;1.73;;;1.50;;
11211;SDS011;5663;50.864;12.096;2023-08-06T16:26:29;2.08;;;1.40;;
11211;SDS011;5663;50.864;12.096;2023-08-06T16:29:17;2.83;;;1.50;;
11211;SDS011;5663;50.864;12.096;2023-08-06T16:31:49;2.28;;;1.48;;
11211;SDS011;5663;50.864;12.096;2023-08-06T16:34:47;1.67;;;1.50;;
11211;SDS011;5663;50.864;12.096;2023-08-06T16:38:12;1.30;;;1.17;;
11211;SDS011;5663;50.864;12.096;2023-08-06T16:41:08;2.05;;;1.30;;
11211;SDS011;5663;50.864;12.096;2023-08-06T17:18:16;1.52;;;1.20;;
11211;SDS011;5663;50.864;12.096;2023-08-06T17:20:53;1.63;;;1.30;;
11211;SDS011;5663;50.864;12.096;2023-08-06T17:23:51;1.20;;;1.10;;
11211;SDS011;5663;50.864;12.096;2023-08-06T17:30:09;1.17;;;1.00;;
11211;SDS011;5663;50.864;12.096;2023-08-06T20:34:07;3.80;;;1.80;;
11211;SDS011;5663;50.864;12.096;2023-08-06T20:37:14;1.87;;;1.43;;
11211;SDS011;5663;50.864;12.096;2023-08-06T20:40:39;4.37;;;1.87;;
11211;SDS011;5663;50.864;12.096;2023-08-06T20:43:07;1.83;;;1.30;;
11211;SDS011;5663;50.864;12.096;2023-08-06T20:45:52;1.70;;;1.37;;
11211;SDS011;5663;50.864;12.096;2023-08-06T21:06:27;1.93;;;1.73;;
11211;SDS011;5663;50.864;12.096;2023-08-06T23:51:04;2.63;;;1.10;;
11211;SDS011;5663;50.864;12.096;2023-08-06T23:56:45;1.50;;;1.20;;
11211;SDS011;5663;50.864;12.096;2023-08-06T23:59:13;2.70;;;1.40;;
